Huvudsida
METAR-TAF:

METAR-TAF

Flygplatser :

Jönköping Airport

Jönköping, Sverige

latitud: 57-46N, longitud: 014-05E, höjd: 226 m

Aktuellt väderrapport

Denna rapport gjordes för 14 minuter sedan, klockan 06:20 UTC
Vind 11 kt från sydväst
Temperatur 12°C
Fuktighet 94%
Tryck 1002 hPa
Sikt: 9000 m
Brutna moln på en höjd av 700 ft

METAR: ESGJ 210620Z 22011KT 9000 BKN007 12/11 Q1002

Tid: 08:34 (06:34 UTC)

Väderprognos

Denna rapport gjordes för 1 timme och 4 minuter sedan, klockan 05:30 UTC
Prognos gäller från 21 kl. 06 UTC till 21 kl. 15 UTC
Vind 10 kt från väst/sydväst
Sikt: 4000 m
Mulet på en höjd av 600 ft
regn
Blir
från 21 kl. 06 UTC till 21 kl. 07 UTC
Sikt 10 km eller mer
Temporärt
från 21 kl. 06 UTC till 21 kl. 08 UTC
Brutna moln på en höjd av 1200 ft
Blir
från 21 kl. 08 UTC till 21 kl. 10 UTC
Spridda moln på en höjd av 2500 ft

TAF: ESGJ 210530Z 2106/2115 25010KT 4000 RA OVC006 BECMG 2106/2107 9999 NSW TEMPO 2106/2108 BKN012 BECMG 2108/2110 SCT025

Aktuella väderrapporter och prognoser från 4000 flygplatser (METAR- och TAF-rapporter).

De tillgängliga stationerna syns som gula och röda prickar på kartan.

För musen över prickarna för att se namnen på stationerna.

Klicka sedan för att få väderrapporter och prognoser.

För att ändra kartan: Klicka på de gröna knapparna med ett svart kors på för att zooma in; den gröna knappen med ett streck på för att zooma ut; eller på de gröna pilarna för angränsande kartor.


METAR-TAF: